Time;durP1;ratioP1;P1;durP2;ratioP2;P2;SDS_P1;SDS_P2;PMS_P1;PMS_P2;Temp;Humidity;BMP_temperature;BMP_pressure;BME280_temperature;BME280_humidity;BME280_pressure;Samples;Min_cycle;Max_cycle;Signal;HPM_P1;HPM_P2
2021/06/13 00:01:33;;;;;;;7.88;4.25;;;20.10;60.40;;;;;;6263156;22;20088;-70
2021/06/13 00:04:00;;;;;;;8.73;4.30;;;20.10;60.30;;;;;;6289903;22;20025;-70
2021/06/13 00:06:25;;;;;;;7.43;4.15;;;20.10;60.30;;;;;;6290174;22;20016;-69
2021/06/13 00:08:51;;;;;;;7.25;4.03;;;20.10;60.40;;;;;;6287124;22;20534;-70
2021/06/13 00:11:17;;;;;;;8.18;4.63;;;20.10;60.40;;;;;;6263471;22;20297;-70
2021/06/13 00:13:44;;;;;;;9.32;4.57;;;20.00;60.40;;;;;;6290518;22;20031;-70
2021/06/13 00:16:13;;;;;;;8.90;4.18;;;20.00;60.40;;;;;;6290049;22;20420;-70
2021/06/13 00:18:39;;;;;;;6.28;3.80;;;20.00;60.40;;;;;;6290264;22;20011;-70
2021/06/13 00:21:05;;;;;;;6.82;3.95;;;20.00;60.50;;;;;;6289680;22;20011;-69
2021/06/13 00:23:31;;;;;;;9.52;4.38;;;20.00;60.50;;;;;;6288805;22;20321;-71
2021/06/13 00:25:57;;;;;;;7.57;4.20;;;20.00;60.40;;;;;;6288944;22;20495;-70
2021/06/13 00:28:23;;;;;;;7.53;3.90;;;20.00;60.40;;;;;;6289149;22;20051;-70
2021/06/13 00:30:49;;;;;;;10.48;4.38;;;20.00;60.50;;;;;;6289331;22;20038;-70
2021/06/13 00:33:14;;;;;;;7.32;3.78;;;19.90;60.40;;;;;;6289613;22;20016;-70
2021/06/13 00:35:40;;;;;;;6.93;4.00;;;20.00;60.50;;;;;;6279032;22;20019;-69
2021/06/13 00:38:06;;;;;;;6.47;3.90;;;19.90;60.60;;;;;;6289227;22;20038;-70
2021/06/13 00:40:33;;;;;;;6.20;4.28;;;19.90;60.60;;;;;;6288956;22;20471;-70
2021/06/13 00:42:59;;;;;;;7.90;4.50;;;20.00;60.70;;;;;;6289729;22;20019;-70
2021/06/13 00:45:27;;;;;;;10.02;4.28;;;19.90;60.60;;;;;;6289404;22;20012;-70
2021/06/13 00:47:53;;;;;;;7.32;3.95;;;19.90;60.60;;;;;;6288870;22;20012;-70
2021/06/13 00:50:31;;;;;;;7.65;3.92;;;19.90;60.50;;;;;;6262614;22;20028;-70
2021/06/13 00:53:03;;;;;;;7.53;4.20;;;19.90;60.50;;;;;;6289709;22;20031;-70
2021/06/13 00:55:29;;;;;;;7.10;4.57;;;19.90;60.50;;;;;;6289250;22;20450;-69
2021/06/13 00:57:55;;;;;;;9.15;4.32;;;19.90;60.60;;;;;;6289552;22;20012;-70
2021/06/13 01:00:22;;;;;;;7.30;4.45;;;19.90;60.40;;;;;;6289145;22;20022;-70
2021/06/13 01:02:48;;;;;;;7.07;4.20;;;19.90;60.40;;;;;;6290130;22;20060;-69
2021/06/13 01:05:14;;;;;;;9.77;4.45;;;19.90;60.50;;;;;;6288974;22;20356;-69
2021/06/13 01:07:58;;;;;;;6.45;3.70;;;19.80;60.40;;;;;;6288635;22;20090;-70
2021/06/13 01:10:50;;;;;;;9.35;4.40;;;19.80;60.30;;;;;;6281730;22;20019;-70
2021/06/13 01:13:27;;;;;;;9.25;4.30;;;19.80;60.20;;;;;;6288819;22;20413;-70
2021/06/13 01:16:08;;;;;;;6.72;4.35;;;19.80;60.50;;;;;;6290023;22;20022;-70
2021/06/13 01:18:54;;;;;;;7.63;4.10;;;19.80;60.30;;;;;;6289416;22;20027;-70
2021/06/13 01:21:47;;;;;;;7.68;4.35;;;19.80;60.40;;;;;;6288915;22;20114;-70
2021/06/13 01:24:37;;;;;;;7.65;3.83;;;19.70;60.50;;;;;;6208411;22;20325;-70
2021/06/13 01:27:24;;;;;;;5.68;3.78;;;19.80;60.50;;;;;;6209964;22;20019;-69
2021/06/13 01:29:52;;;;;;;7.53;4.13;;;19.70;60.50;;;;;;6289058;22;20036;-70
2021/06/13 01:32:23;;;;;;;7.13;4.32;;;19.70;60.50;;;;;;6288952;22;20035;-70
2021/06/13 01:35:25;;;;;;;7.35;4.22;;;19.80;60.50;;;;;;6288984;22;20027;-70
2021/06/13 01:37:53;;;;;;;7.70;4.82;;;19.70;60.40;;;;;;6127577;23;20097;-70
2021/06/13 01:40:22;;;;;;;8.65;4.30;;;19.60;60.40;;;;;;6252421;22;20090;-70
2021/06/13 01:42:52;;;;;;;8.15;4.20;;;19.70;60.50;;;;;;6288510;22;20023;-69
2021/06/13 01:45:26;;;;;;;6.63;4.78;;;19.70;60.70;;;;;;6288981;22;20015;-70
2021/06/13 01:47:52;;;;;;;5.50;3.90;;;19.70;60.70;;;;;;6288515;22;20016;-70
2021/06/13 01:50:21;;;;;;;6.80;4.00;;;19.60;60.70;;;;;;6289170;22;20039;-70
2021/06/13 01:52:50;;;;;;;6.65;4.03;;;19.70;60.80;;;;;;6289028;22;20035;-69
2021/06/13 01:55:18;;;;;;;6.20;4.32;;;19.70;60.70;;;;;;6288907;22;20081;-70
2021/06/13 01:57:45;;;;;;;6.68;4.28;;;19.70;60.70;;;;;;6288926;22;20031;-69
2021/06/13 02:00:13;;;;;;;7.45;4.03;;;19.70;60.70;;;;;;6290143;22;20038;-71
2021/06/13 02:02:43;;;;;;;6.78;4.03;;;19.70;60.70;;;;;;6290810;22;20030;-70
2021/06/13 02:05:10;;;;;;;8.27;4.47;;;19.70;60.60;;;;;;6290562;22;20312;-71
2021/06/13 02:07:39;;;;;;;6.43;3.88;;;19.60;60.60;;;;;;6290182;22;20089;-71
2021/06/13 02:10:11;;;;;;;8.95;3.92;;;19.70;60.70;;;;;;6281178;22;20047;-70
2021/06/13 02:12:43;;;;;;;7.75;3.90;;;19.60;60.60;;;;;;6290346;22;20023;-70
2021/06/13 02:15:10;;;;;;;7.65;3.92;;;19.60;60.70;;;;;;6290324;22;20077;-70
2021/06/13 02:17:41;;;;;;;9.32;5.25;;;19.60;60.80;;;;;;6280688;22;20094;-70
2021/06/13 02:20:10;;;;;;;7.85;4.30;;;19.60;60.90;;;;;;6280097;22;20095;-70
2021/06/13 02:22:36;;;;;;;5.30;3.72;;;19.60;60.80;;;;;;6290780;22;20035;-70
2021/06/13 02:25:04;;;;;;;9.27;4.20;;;19.60;60.90;;;;;;6290529;22;20016;-69
2021/06/13 02:27:30;;;;;;;9.23;3.75;;;19.60;60.90;;;;;;6290768;22;20432;-69
2021/06/13 02:29:59;;;;;;;7.78;4.43;;;19.60;60.90;;;;;;6290811;22;20023;-71
2021/06/13 02:32:25;;;;;;;8.45;4.07;;;19.50;60.90;;;;;;6290970;22;20012;-70
2021/06/13 02:34:52;;;;;;;8.52;3.67;;;19.50;60.90;;;;;;6290225;22;20016;-69
2021/06/13 02:37:19;;;;;;;8.30;4.38;;;19.50;60.90;;;;;;6281179;22;20012;-70
2021/06/13 02:39:45;;;;;;;6.70;3.97;;;19.50;60.90;;;;;;6290469;22;20085;-71
2021/06/13 02:42:12;;;;;;;6.90;4.18;;;19.50;60.80;;;;;;6290085;22;20035;-71
2021/06/13 02:44:39;;;;;;;6.15;3.58;;;19.50;60.90;;;;;;6289826;22;20073;-69
2021/06/13 02:47:05;;;;;;;6.70;4.05;;;19.50;60.90;;;;;;6289997;22;20118;-69
2021/06/13 02:49:31;;;;;;;6.40;3.90;;;19.50;60.80;;;;;;6290154;22;20104;-70
2021/06/13 02:52:09;;;;;;;9.77;4.47;;;19.50;61.00;;;;;;6290391;22;20343;-70
2021/06/13 02:54:36;;;;;;;6.40;3.85;;;19.50;61.00;;;;;;6290690;22;20012;-70
2021/06/13 02:57:07;;;;;;;6.93;4.28;;;19.50;61.10;;;;;;6290377;22;20011;-69
2021/06/13 02:59:41;;;;;;;8.45;3.90;;;19.40;61.10;;;;;;6290937;22;20022;-69
2021/06/13 03:02:11;;;;;;;8.23;3.90;;;19.40;61.10;;;;;;6289156;22;20286;-70
2021/06/13 03:04:40;;;;;;;8.80;4.72;;;19.40;61.10;;;;;;6289899;22;20091;-70
2021/06/13 03:07:06;;;;;;;5.80;3.90;;;19.40;61.20;;;;;;6290510;22;20474;-69
2021/06/13 03:09:36;;;;;;;6.07;4.18;;;19.40;61.20;;;;;;6286308;22;20012;-70
2021/06/13 03:12:03;;;;;;;6.75;3.95;;;19.40;61.10;;;;;;6289584;22;20015;-70
2021/06/13 03:14:31;;;;;;;8.13;3.65;;;19.40;61.20;;;;;;6290757;22;20020;-70
2021/06/13 03:16:58;;;;;;;8.90;3.72;;;19.40;61.10;;;;;;6289727;22;20431;-71
2021/06/13 03:19:26;;;;;;;7.32;4.40;;;19.40;61.10;;;;;;6263385;22;20016;-70
2021/06/13 03:21:53;;;;;;;5.57;3.72;;;19.30;61.10;;;;;;6289752;22;20024;-70
2021/06/13 03:24:22;;;;;;;9.95;4.13;;;19.30;61.10;;;;;;6291060;22;20038;-70
2021/06/13 03:26:51;;;;;;;11.27;4.32;;;19.30;61.10;;;;;;6290304;22;20095;-70
2021/06/13 03:29:18;;;;;;;6.93;4.15;;;19.30;61.20;;;;;;6290974;22;20051;-70
2021/06/13 03:31:45;;;;;;;6.20;3.97;;;19.30;61.20;;;;;;6290418;22;20444;-70
2021/06/13 03:34:13;;;;;;;6.45;3.67;;;19.30;61.10;;;;;;6290614;22;20016;-69
2021/06/13 03:36:41;;;;;;;7.85;4.22;;;19.30;61.20;;;;;;6290452;22;20082;-70
2021/06/13 03:39:07;;;;;;;6.65;4.32;;;19.30;61.20;;;;;;6289729;22;20053;-70
2021/06/13 03:41:34;;;;;;;5.72;3.88;;;19.30;61.20;;;;;;6289789;22;20409;-70
2021/06/13 03:44:00;;;;;;;7.20;3.85;;;19.30;61.20;;;;;;6289717;22;20022;-70
2021/06/13 03:46:26;;;;;;;8.35;3.55;;;19.30;61.20;;;;;;6289765;22;20027;-70
2021/06/13 03:48:55;;;;;;;7.95;3.92;;;19.30;61.20;;;;;;6280271;22;20011;-70
2021/06/13 03:51:23;;;;;;;8.40;3.75;;;19.30;61.20;;;;;;6290429;22;20088;-70
2021/06/13 03:53:55;;;;;;;8.75;4.07;;;19.30;61.30;;;;;;6289343;22;20016;-69
2021/06/13 03:56:25;;;;;;;7.55;3.67;;;19.30;61.20;;;;;;6289780;22;20016;-72
2021/06/13 03:58:52;;;;;;;6.18;3.67;;;19.30;61.20;;;;;;6278725;22;20320;-69
2021/06/13 04:01:20;;;;;;;6.57;3.65;;;19.30;61.30;;;;;;6290318;22;20069;-70
2021/06/13 04:03:49;;;;;;;8.00;3.95;;;19.30;61.30;;;;;;6290302;22;20024;-69
2021/06/13 04:06:15;;;;;;;7.25;3.45;;;19.30;61.30;;;;;;6289650;22;20012;-69
2021/06/13 04:08:43;;;;;;;6.07;3.63;;;19.30;61.30;;;;;;6279603;22;20071;-70
2021/06/13 04:11:10;;;;;;;8.75;4.07;;;19.30;61.40;;;;;;6263649;22;20022;-69
2021/06/13 04:13:37;;;;;;;6.55;3.63;;;19.30;61.40;;;;;;6290142;22;20016;-70
2021/06/13 04:16:05;;;;;;;6.95;3.55;;;19.30;61.40;;;;;;6289483;22;20079;-70
2021/06/13 04:18:35;;;;;;;8.23;4.07;;;19.20;61.30;;;;;;6289169;22;20352;-70
2021/06/13 04:21:03;;;;;;;5.72;3.63;;;19.30;61.40;;;;;;6289354;22;20035;-69
2021/06/13 04:23:30;;;;;;;7.35;3.95;;;19.30;61.40;;;;;;6289375;22;20023;-69
2021/06/13 04:25:57;;;;;;;6.25;3.40;;;19.30;61.40;;;;;;6289453;22;20087;-70
2021/06/13 04:28:23;;;;;;;5.05;3.22;;;19.30;61.40;;;;;;6289034;22;20054;-70
2021/06/13 04:31:01;;;;;;;8.55;4.13;;;19.30;61.20;;;;;;6289345;22;20019;-70
2021/06/13 04:33:28;;;;;;;6.80;3.63;;;19.30;61.20;;;;;;6288968;22;20028;-69
2021/06/13 04:35:54;;;;;;;6.95;3.45;;;19.30;61.30;;;;;;6289092;22;20301;-69
2021/06/13 04:38:20;;;;;;;6.50;3.40;;;19.30;61.30;;;;;;6289329;22;20031;-70
2021/06/13 04:40:46;;;;;;;7.50;3.50;;;19.20;61.30;;;;;;6289668;22;20065;-69
2021/06/13 04:43:12;;;;;;;8.65;4.13;;;19.20;61.20;;;;;;6288677;22;20011;-70
2021/06/13 04:45:38;;;;;;;8.63;4.00;;;19.30;61.30;;;;;;6278794;22;20015;-71
2021/06/13 04:48:06;;;;;;;5.72;4.03;;;19.30;61.40;;;;;;6279047;22;20011;-69
2021/06/13 04:50:39;;;;;;;5.60;3.35;;;19.20;61.20;;;;;;6278893;22;20305;-70
2021/06/13 04:53:32;;;;;;;8.15;3.88;;;19.20;61.00;;;;;;6263071;22;20011;-70
2021/06/13 04:56:06;;;;;;;9.77;3.40;;;19.20;61.20;;;;;;6289094;22;20099;-70
2021/06/13 04:58:31;;;;;;;10.35;3.80;;;19.20;61.20;;;;;;6262929;22;20022;-70
2021/06/13 05:00:57;;;;;;;8.60;3.40;;;19.20;61.40;;;;;;6289466;22;20016;-70
2021/06/13 05:03:23;;;;;;;7.38;3.95;;;19.20;61.40;;;;;;6289582;22;20041;-68
2021/06/13 05:05:50;;;;;;;10.20;3.88;;;19.20;61.40;;;;;;6287670;22;20019;-69
2021/06/13 05:08:16;;;;;;;6.50;3.88;;;19.30;61.60;;;;;;6288912;22;20038;-69
2021/06/13 05:10:42;;;;;;;7.05;3.67;;;19.30;61.60;;;;;;6278173;22;20504;-70
2021/06/13 05:13:16;;;;;;;7.63;3.55;;;19.20;61.40;;;;;;6288288;22;20040;-70
2021/06/13 05:15:42;;;;;;;8.10;3.45;;;19.30;61.30;;;;;;6279686;22;20012;-69
2021/06/13 05:18:08;;;;;;;6.05;3.42;;;19.30;61.50;;;;;;6290029;22;20027;-69
2021/06/13 05:20:35;;;;;;;6.93;3.70;;;19.30;61.70;;;;;;6288931;22;20340;-69
2021/06/13 05:23:05;;;;;;;6.03;3.92;;;19.30;61.70;;;;;;6289154;22;20090;-69
2021/06/13 05:25:35;;;;;;;11.70;4.22;;;19.30;61.80;;;;;;6288781;22;20416;-69
2021/06/13 05:28:03;;;;;;;8.15;4.32;;;19.30;62.10;;;;;;6288848;22;20158;-69
2021/06/13 05:30:31;;;;;;;15.68;4.90;;;19.30;62.80;;;;;;6289527;22;20020;-69
2021/06/13 05:32:58;;;;;;;14.43;4.47;;;19.40;61.00;;;;;;6288764;22;20015;-70
2021/06/13 05:35:24;;;;;;;11.90;4.28;;;19.30;59.80;;;;;;6289302;22;20024;-70
2021/06/13 05:37:51;;;;;;;8.52;4.15;;;19.30;59.10;;;;;;6290907;22;20027;-69
2021/06/13 05:40:18;;;;;;;12.65;4.63;;;19.20;58.90;;;;;;6291800;22;20020;-69
2021/06/13 05:42:44;;;;;;;12.70;4.72;;;19.10;58.90;;;;;;6291247;22;20105;-70
2021/06/13 05:45:12;;;;;;;10.85;4.43;;;19.10;58.90;;;;;;6290917;22;20019;-69
2021/06/13 05:47:38;;;;;;;9.23;4.25;;;19.00;59.30;;;;;;6291214;22;20091;-70
2021/06/13 05:50:06;;;;;;;14.82;4.97;;;19.00;59.50;;;;;;6290955;22;20022;-70
2021/06/13 05:52:32;;;;;;;8.43;4.18;;;18.90;59.50;;;;;;6290166;22;20012;-69
2021/06/13 05:55:00;;;;;;;16.23;5.25;;;18.90;60.00;;;;;;6290717;22;20035;-70
2021/06/13 05:57:31;;;;;;;13.93;3.95;;;18.80;60.30;;;;;;6290272;22;20141;-69
2021/06/13 05:59:59;;;;;;;10.35;3.38;;;18.80;60.80;;;;;;6290535;22;20022;-68
2021/06/13 06:02:25;;;;;;;10.00;4.10;;;18.80;61.30;;;;;;6290218;22;20037;-68
2021/06/13 06:04:51;;;;;;;11.77;4.25;;;18.80;61.50;;;;;;6290785;22;20082;-71
2021/06/13 06:07:17;;;;;;;12.80;4.13;;;18.90;61.70;;;;;;6289846;22;20015;-70
2021/06/13 06:09:43;;;;;;;10.85;4.22;;;18.90;62.00;;;;;;6285543;22;20364;-69
2021/06/13 06:12:10;;;;;;;9.10;3.85;;;19.00;62.10;;;;;;6290505;22;20023;-70
2021/06/13 06:14:36;;;;;;;11.02;4.07;;;19.00;62.20;;;;;;6290681;22;20015;-70
2021/06/13 06:17:02;;;;;;;12.20;4.35;;;19.00;62.60;;;;;;6290266;22;20026;-70
2021/06/13 06:19:27;;;;;;;10.88;4.25;;;19.00;62.40;;;;;;6280483;22;20089;-69
2021/06/13 06:21:53;;;;;;;12.18;4.72;;;19.00;62.50;;;;;;6289858;22;20023;-72
2021/06/13 06:24:20;;;;;;;9.65;4.35;;;19.00;62.60;;;;;;6289925;22;20043;-72
2021/06/13 06:26:45;;;;;;;11.38;4.40;;;19.00;63.20;;;;;;6290468;22;20019;-72
2021/06/13 06:29:11;;;;;;;11.55;4.50;;;19.10;63.10;;;;;;6290710;22;20412;-72
2021/06/13 06:31:37;;;;;;;12.20;4.50;;;19.20;62.30;;;;;;6280693;22;20329;-72
2021/06/13 06:34:03;;;;;;;12.95;4.03;;;19.30;61.50;;;;;;6289892;22;20019;-73
2021/06/13 06:36:29;;;;;;;12.70;4.95;;;19.30;60.80;;;;;;6290128;22;20019;-73
2021/06/13 06:38:55;;;;;;;11.20;4.57;;;19.30;60.80;;;;;;6290409;22;20011;-74
2021/06/13 06:41:20;;;;;;;9.30;4.18;;;19.30;61.10;;;;;;6290397;22;20472;-73
2021/06/13 06:43:46;;;;;;;12.25;4.30;;;19.30;61.00;;;;;;6289953;22;20011;-76
2021/06/13 06:46:13;;;;;;;12.77;5.00;;;19.40;60.80;;;;;;6289158;22;20026;-73
2021/06/13 06:48:38;;;;;;;10.00;4.43;;;19.40;60.90;;;;;;6289177;22;20027;-72
2021/06/13 06:51:04;;;;;;;14.35;4.50;;;19.50;60.70;;;;;;6279711;22;20012;-71
2021/06/13 06:53:30;;;;;;;11.27;5.03;;;19.50;59.40;;;;;;6289790;22;20023;-69
2021/06/13 06:55:56;;;;;;;11.15;4.57;;;19.50;59.40;;;;;;6291076;22;20026;-72
2021/06/13 06:58:22;;;;;;;14.63;4.43;;;19.50;59.60;;;;;;6290198;22;20023;-73
2021/06/13 07:00:47;;;;;;;8.60;4.00;;;19.50;59.70;;;;;;6253341;22;20342;-68
2021/06/13 07:03:13;;;;;;;14.93;4.65;;;19.50;59.90;;;;;;6289754;22;20016;-68
2021/06/13 07:05:39;;;;;;;14.43;4.53;;;19.50;60.10;;;;;;6290145;22;20409;-68
2021/06/13 07:08:06;;;;;;;15.32;4.45;;;19.60;60.40;;;;;;6289825;22;20519;-69
2021/06/13 07:10:32;;;;;;;13.85;4.82;;;19.50;60.50;;;;;;6281088;22;20095;-70
2021/06/13 07:12:58;;;;;;;18.55;4.47;;;19.50;61.50;;;;;;6289861;22;20016;-69
2021/06/13 07:15:24;;;;;;;14.30;4.50;;;19.50;61.40;;;;;;6290201;22;20019;-70
2021/06/13 07:17:50;;;;;;;12.57;4.68;;;19.50;61.50;;;;;;6289855;22;20011;-75
2021/06/13 07:20:16;;;;;;;15.05;4.88;;;19.60;61.90;;;;;;6289642;22;20007;-70
2021/06/13 07:22:42;;;;;;;14.88;4.68;;;19.60;62.00;;;;;;6289404;22;20470;-73
2021/06/13 07:25:10;;;;;;;16.17;4.82;;;19.70;62.00;;;;;;6289615;22;20085;-69
2021/06/13 07:27:37;;;;;;;14.88;4.30;;;19.60;62.00;;;;;;6289863;22;20494;-69
2021/06/13 07:30:10;;;;;;;12.35;4.07;;;19.70;62.10;;;;;;6289558;22;20491;-69
2021/06/13 07:32:36;;;;;;;14.48;4.78;;;19.60;61.90;;;;;;6290189;22;20459;-69
2021/06/13 07:35:04;;;;;;;9.65;3.58;;;19.70;62.30;;;;;;6289787;22;20011;-69
2021/06/13 07:37:30;;;;;;;16.90;4.50;;;19.70;62.20;;;;;;6289343;22;20019;-69
2021/06/13 07:39:55;;;;;;;19.58;4.57;;;19.70;62.50;;;;;;6290385;22;20112;-69
2021/06/13 07:42:21;;;;;;;14.90;4.28;;;19.70;62.50;;;;;;6289924;22;20019;-72
2021/06/13 07:44:48;;;;;;;14.27;4.68;;;19.80;62.60;;;;;;6289558;22;20083;-69
2021/06/13 07:47:14;;;;;;;18.75;5.03;;;19.80;62.50;;;;;;6289596;22;20427;-69
2021/06/13 07:49:39;;;;;;;11.65;4.47;;;19.90;62.40;;;;;;6278313;22;20039;-69
2021/06/13 07:52:05;;;;;;;11.57;4.40;;;19.90;61.90;;;;;;6290062;22;20011;-69
2021/06/13 07:54:31;;;;;;;14.85;4.03;;;19.90;61.80;;;;;;6288707;22;20019;-70
2021/06/13 07:56:57;;;;;;;13.00;4.53;;;19.90;61.80;;;;;;6289463;22;20294;-69
2021/06/13 07:59:23;;;;;;;12.77;4.53;;;19.90;61.90;;;;;;6289110;22;20084;-71
2021/06/13 08:01:49;;;;;;;11.10;3.63;;;19.90;62.30;;;;;;6289312;22;20324;-69
2021/06/13 08:04:15;;;;;;;14.50;5.03;;;19.90;61.80;;;;;;6289643;22;20019;-69
2021/06/13 08:06:41;;;;;;;11.40;4.68;;;19.90;61.90;;;;;;6289925;22;20012;-68
2021/06/13 08:09:07;;;;;;;14.13;4.63;;;20.00;62.10;;;;;;6286534;22;20061;-69
2021/06/13 08:11:32;;;;;;;10.63;4.57;;;20.00;62.20;;;;;;6289370;22;20016;-69
2021/06/13 08:13:58;;;;;;;12.82;4.68;;;20.00;62.20;;;;;;6289855;22;20015;-69
2021/06/13 08:16:24;;;;;;;10.93;3.83;;;20.00;62.20;;;;;;6288468;22;20035;-68
2021/06/13 08:18:51;;;;;;;12.75;4.18;;;20.00;62.20;;;;;;6289215;22;20077;-70
2021/06/13 08:21:17;;;;;;;10.52;4.32;;;20.10;62.20;;;;;;6289198;22;20390;-70
2021/06/13 08:23:43;;;;;;;10.00;4.10;;;20.10;62.30;;;;;;6289029;22;20015;-70
2021/06/13 08:26:10;;;;;;;9.55;3.72;;;20.10;62.30;;;;;;6289094;22;20054;-69
2021/06/13 08:28:35;;;;;;;10.32;4.53;;;20.10;62.40;;;;;;6289141;22;20012;-69
2021/06/13 08:31:01;;;;;;;10.43;4.22;;;20.10;62.40;;;;;;6289322;22;20019;-69
2021/06/13 08:33:27;;;;;;;12.50;4.90;;;20.10;62.50;;;;;;6289295;22;20012;-69
2021/06/13 08:35:53;;;;;;;8.07;3.65;;;20.10;62.50;;;;;;6278885;22;20290;-69
2021/06/13 08:38:21;;;;;;;9.40;3.75;;;20.20;62.50;;;;;;6289248;22;20019;-69
2021/06/13 08:40:48;;;;;;;8.18;3.88;;;20.20;62.50;;;;;;6289496;22;20016;-69
2021/06/13 08:43:14;;;;;;;8.18;4.07;;;20.20;62.50;;;;;;6289112;22;20018;-69
2021/06/13 08:45:40;;;;;;;7.78;3.60;;;20.20;62.50;;;;;;6289330;22;20039;-69
2021/06/13 08:48:10;;;;;;;10.70;3.63;;;20.20;62.60;;;;;;6288203;22;20034;-70
2021/06/13 08:50:37;;;;;;;9.07;3.97;;;20.30;62.70;;;;;;6289183;22;20019;-68
2021/06/13 08:53:04;;;;;;;11.38;3.83;;;20.30;62.90;;;;;;6289139;22;20011;-68
2021/06/13 08:55:32;;;;;;;12.30;3.90;;;20.30;63.00;;;;;;6289009;22;20016;-68
2021/06/13 08:57:59;;;;;;;11.75;4.35;;;20.30;62.90;;;;;;6288943;22;20077;-69
2021/06/13 09:00:29;;;;;;;9.73;3.22;;;20.40;62.60;;;;;;6288603;22;20083;-70
2021/06/13 09:02:56;;;;;;;6.93;3.17;;;20.30;62.40;;;;;;6278454;22;20086;-70
2021/06/13 09:05:26;;;;;;;10.13;3.58;;;20.30;62.50;;;;;;6278977;22;20039;-69
2021/06/13 09:07:58;;;;;;;10.18;3.45;;;20.40;62.60;;;;;;6289078;22;20042;-72
2021/06/13 09:10:27;;;;;;;9.98;3.42;;;20.40;62.60;;;;;;6281258;22;20026;-74
2021/06/13 09:13:13;;;;;;;9.50;3.70;;;20.40;61.70;;;;;;6288822;22;20016;-69
2021/06/13 09:15:45;;;;;;;9.27;3.22;;;20.40;61.50;;;;;;6279605;22;20020;-70
2021/06/13 09:18:27;;;;;;;5.70;3.35;;;20.50;59.60;;;;;;6289098;22;20012;-72
2021/06/13 09:20:53;;;;;;;8.75;2.80;;;20.40;58.40;;;;;;6288910;22;20019;-70
2021/06/13 09:23:18;;;;;;;8.65;3.83;;;20.40;57.80;;;;;;6288994;22;20320;-71
2021/06/13 09:25:45;;;;;;;9.02;3.65;;;20.40;59.10;;;;;;6288665;22;20439;-70
2021/06/13 09:28:15;;;;;;;9.35;3.40;;;20.40;58.70;;;;;;6289530;22;20039;-70
2021/06/13 09:30:43;;;;;;;9.82;3.35;;;20.40;59.00;;;;;;6278411;22;20027;-71
2021/06/13 09:33:14;;;;;;;8.10;3.38;;;20.40;58.60;;;;;;6288669;22;20106;-72
2021/06/13 09:35:43;;;;;;;13.68;3.58;;;20.40;58.50;;;;;;6288325;22;20443;-69
2021/06/13 09:38:16;;;;;;;10.60;3.72;;;20.50;59.20;;;;;;6288769;22;20038;-70
2021/06/13 09:40:49;;;;;;;16.20;4.75;;;20.50;58.20;;;;;;6288858;22;20078;-69
2021/06/13 09:43:16;;;;;;;9.75;3.80;;;20.50;58.50;;;;;;6289744;22;20022;-69
2021/06/13 09:45:50;;;;;;;9.55;3.35;;;20.50;59.30;;;;;;6288777;22;20026;-70
2021/06/13 09:48:18;;;;;;;8.40;3.60;;;20.50;59.90;;;;;;6288896;22;20018;-71
2021/06/13 09:50:50;;;;;;;13.13;3.75;;;20.50;60.20;;;;;;6288371;22;20087;-70
2021/06/13 09:53:26;;;;;;;11.70;4.03;;;20.50;60.40;;;;;;6289121;22;20011;-69
2021/06/13 09:56:29;;;;;;;16.80;4.15;;;20.50;60.80;;;;;;6288495;22;20046;-70
2021/06/13 09:59:03;;;;;;;13.45;4.03;;;20.60;61.10;;;;;;6102976;23;20018;-69
2021/06/13 10:01:36;;;;;;;12.65;3.90;;;20.60;61.10;;;;;;6257990;22;20024;-68
2021/06/13 10:04:02;;;;;;;11.73;3.55;;;20.60;60.90;;;;;;6289242;22;20022;-75
2021/06/13 10:06:36;;;;;;;10.63;3.90;;;20.60;61.20;;;;;;6288542;22;20022;-70
2021/06/13 10:09:04;;;;;;;11.13;3.60;;;20.60;61.10;;;;;;6286273;22;20368;-68
2021/06/13 10:11:31;;;;;;;8.57;3.42;;;20.60;61.30;;;;;;6289029;22;20026;-69
2021/06/13 10:13:59;;;;;;;10.98;3.40;;;20.70;60.50;;;;;;6288415;22;20012;-68
2021/06/13 10:16:36;;;;;;;8.95;3.28;;;20.70;60.10;;;;;;6252212;22;20052;-69
2021/06/13 10:19:14;;;;;;;10.68;3.13;;;20.70;60.20;;;;;;6288857;22;20018;-70
2021/06/13 10:21:44;;;;;;;12.45;3.45;;;20.70;60.50;;;;;;6289917;22;20331;-75
2021/06/13 10:24:13;;;;;;;10.18;3.50;;;20.80;60.40;;;;;;6290380;22;20023;-77
2021/06/13 10:26:47;;;;;;;8.32;3.83;;;20.80;58.80;;;;;;6290278;22;20050;-74
2021/06/13 10:29:14;;;;;;;7.32;3.42;;;20.80;58.10;;;;;;6290507;22;20039;-74
2021/06/13 10:31:42;;;;;;;6.80;3.30;;;20.80;55.90;;;;;;6280527;22;20128;-71
2021/06/13 10:34:08;;;;;;;10.95;3.67;;;20.80;56.70;;;;;;6290358;22;20018;-71
2021/06/13 10:36:37;;;;;;;7.13;3.13;;;20.80;58.20;;;;;;6290161;22;20425;-71
2021/06/13 10:39:06;;;;;;;9.15;3.08;;;20.80;58.20;;;;;;6291125;22;20016;-71
2021/06/13 10:41:31;;;;;;;7.13;3.17;;;20.70;58.30;;;;;;6290280;22;20438;-71
2021/06/13 10:43:59;;;;;;;9.48;3.60;;;20.80;58.80;;;;;;6280252;22;20039;-71
2021/06/13 10:46:27;;;;;;;7.90;3.38;;;20.80;59.10;;;;;;6290321;22;20012;-71
2021/06/13 10:48:56;;;;;;;9.50;3.28;;;20.80;59.00;;;;;;6290438;22;20016;-71
2021/06/13 10:51:28;;;;;;;7.25;2.80;;;20.80;59.10;;;;;;6279837;22;20016;-70
2021/06/13 10:54:29;;;;;;;6.55;2.95;;;20.80;59.10;;;;;;6290422;22;20027;-71
2021/06/13 10:57:04;;;;;;;5.18;2.67;;;20.90;59.30;;;;;;6290257;22;20421;-71
2021/06/13 10:59:35;;;;;;;12.32;3.20;;;20.90;59.80;;;;;;6280887;22;20282;-70
2021/06/13 11:02:17;;;;;;;6.82;2.90;;;20.90;60.00;;;;;;6289847;22;20023;-70
2021/06/13 11:04:43;;;;;;;6.90;3.10;;;20.90;60.10;;;;;;6290408;22;20416;-70
2021/06/13 11:10:12;;;;;;;8.25;2.80;;;20.90;60.10;;;;;;6253295;22;20031;-70
2021/06/13 11:12:56;;;;;;;11.35;3.15;;;20.90;60.30;;;;;;6290071;22;20330;-71
2021/06/13 11:15:30;;;;;;;9.10;3.00;;;20.90;60.30;;;;;;6289223;22;20015;-70
2021/06/13 11:17:57;;;;;;;9.30;3.08;;;20.90;60.90;;;;;;6290283;22;20078;-69
2021/06/13 11:20:30;;;;;;;12.70;3.72;;;21.00;61.30;;;;;;6280789;22;20078;-73
2021/06/13 11:22:57;;;;;;;7.28;2.30;;;20.90;61.40;;;;;;6289430;22;20053;-71
2021/06/13 11:25:27;;;;;;;11.25;3.03;;;21.10;59.30;;;;;;6289859;22;20488;-71
2021/06/13 11:28:12;;;;;;;7.90;2.88;;;21.00;59.50;;;;;;6289798;22;20335;-72
2021/06/13 11:30:51;;;;;;;9.65;3.55;;;21.00;59.30;;;;;;6290478;22;20035;-70
2021/06/13 11:33:33;;;;;;;9.15;2.80;;;21.00;59.80;;;;;;6289547;22;20015;-70
2021/06/13 11:36:25;;;;;;;8.40;2.47;;;21.00;60.00;;;;;;6290206;22;20016;-70
2021/06/13 11:39:02;;;;;;;7.05;2.60;;;21.00;60.30;;;;;;6261551;22;20011;-70
2021/06/13 11:41:31;;;;;;;6.10;2.53;;;21.00;60.30;;;;;;6289592;22;20020;-70
2021/06/13 11:44:00;;;;;;;7.05;2.90;;;21.00;60.50;;;;;;6290088;22;20027;-70
2021/06/13 11:46:33;;;;;;;6.65;2.70;;;21.00;60.60;;;;;;6289780;22;20011;-70
2021/06/13 11:49:00;;;;;;;7.45;2.58;;;21.00;60.60;;;;;;6289851;22;20019;-70
2021/06/13 11:51:26;;;;;;;5.40;2.55;;;21.00;60.70;;;;;;6289684;22;20016;-69
2021/06/13 11:53:58;;;;;;;8.15;2.40;;;21.00;60.80;;;;;;6289497;22;20031;-70
2021/06/13 11:56:36;;;;;;;4.82;2.00;;;21.00;60.90;;;;;;6289727;22;20015;-70
2021/06/13 11:59:05;;;;;;;7.68;2.80;;;21.00;60.90;;;;;;6289703;22;20083;-70
2021/06/13 12:01:35;;;;;;;8.63;2.30;;;21.00;60.90;;;;;;6289516;22;20041;-70
2021/06/13 12:04:02;;;;;;;9.73;3.30;;;21.00;61.00;;;;;;6289689;22;20015;-70
2021/06/13 12:06:28;;;;;;;6.25;2.80;;;21.00;61.10;;;;;;6289668;22;20011;-70
2021/06/13 12:08:56;;;;;;;4.03;1.95;;;21.00;61.20;;;;;;6289117;22;20501;-70
2021/06/13 12:12:00;;;;;;;5.97;2.25;;;21.00;61.20;;;;;;6289556;22;20016;-70
2021/06/13 12:14:27;;;;;;;6.93;2.63;;;21.00;61.20;;;;;;6257418;22;20020;-70
2021/06/13 12:17:15;;;;;;;2.55;2.03;;;21.00;61.20;;;;;;6289160;22;20317;-70
2021/06/13 12:19:45;;;;;;;4.18;2.20;;;21.00;61.30;;;;;;6289630;22;20030;-70
2021/06/13 12:22:59;;;;;;;3.72;2.33;;;21.00;61.40;;;;;;6289079;22;20027;-70
2021/06/13 12:28:11;;;;;;;4.53;2.15;;;21.00;61.50;;;;;;6290013;22;20118;-70
2021/06/13 12:30:39;;;;;;;4.38;2.47;;;21.00;61.50;;;;;;6289674;22;20077;-70
2021/06/13 12:33:10;;;;;;;3.45;1.90;;;20.90;61.50;;;;;;6289420;22;20035;-70
2021/06/13 12:35:38;;;;;;;4.82;2.05;;;21.00;61.60;;;;;;6289297;22;20087;-70
2021/06/13 12:38:07;;;;;;;4.60;2.35;;;21.00;61.60;;;;;;6290034;22;20039;-70
2021/06/13 12:40:39;;;;;;;3.90;1.80;;;21.00;61.70;;;;;;6289644;22;20312;-70
2021/06/13 12:43:06;;;;;;;5.35;2.33;;;21.00;61.70;;;;;;6289017;22;20034;-70
2021/06/13 12:45:33;;;;;;;4.00;2.20;;;21.00;61.70;;;;;;6290090;22;20026;-70
2021/06/13 12:48:01;;;;;;;4.82;2.00;;;21.00;61.70;;;;;;6289220;22;20020;-70
2021/06/13 12:50:34;;;;;;;4.07;2.20;;;21.00;61.80;;;;;;6289807;22;20043;-70
2021/06/13 12:53:02;;;;;;;3.40;2.08;;;21.00;61.80;;;;;;6289344;22;20016;-70
2021/06/13 12:55:38;;;;;;;4.53;1.95;;;21.00;61.80;;;;;;6288886;22;20420;-70
2021/06/13 12:58:14;;;;;;;4.35;1.90;;;21.00;61.90;;;;;;6289954;22;20061;-70
2021/06/13 13:00:41;;;;;;;4.55;1.92;;;21.00;61.90;;;;;;6288498;22;20359;-70